Time;durP1;ratioP1;P1;durP2;ratioP2;P2;SDS_P1;SDS_P2;PMS_P1;PMS_P2;Temp;Humidity;BMP_temperature;BMP_pressure;BME280_temperature;BME280_humidity;BME280_pressure;Samples;Min_cycle;Max_cycle;Signal;HPM_P1;HPM_P2
2021/03/27 00:00:51;;;;;;;9.23;5.15;;;11.90;63.60;;;;;;6245578;23;19996;-74
2021/03/27 00:03:26;;;;;;;9.98;5.35;;;11.90;63.40;;;;;;6245430;23;19996;-74
2021/03/27 00:06:14;;;;;;;9.23;4.97;;;11.90;63.60;;;;;;6245148;23;20071;-73
2021/03/27 00:08:50;;;;;;;6.82;4.65;;;11.90;63.90;;;;;;6218976;23;20008;-74
2021/03/27 00:11:45;;;;;;;8.55;4.93;;;12.00;64.00;;;;;;6245349;23;19992;-74
2021/03/27 00:14:16;;;;;;;11.77;5.38;;;12.00;64.00;;;;;;6243192;23;20382;-74
2021/03/27 00:16:56;;;;;;;9.55;5.15;;;12.00;64.00;;;;;;6217873;23;20012;-74
2021/03/27 00:19:38;;;;;;;9.00;5.07;;;12.10;64.10;;;;;;6219762;23;20047;-74
2021/03/27 00:22:12;;;;;;;8.30;4.50;;;12.10;64.10;;;;;;6246108;23;20399;-74
2021/03/27 00:24:38;;;;;;;7.10;4.20;;;12.10;64.10;;;;;;6245687;23;20131;-74
2021/03/27 00:27:10;;;;;;;6.95;3.80;;;12.10;64.20;;;;;;6246273;23;20080;-74
2021/03/27 00:29:43;;;;;;;8.88;3.67;;;12.20;64.50;;;;;;6218304;23;20004;-74
2021/03/27 00:32:28;;;;;;;7.95;3.83;;;12.20;64.70;;;;;;6219188;23;20470;-74
2021/03/27 00:34:57;;;;;;;7.70;4.18;;;12.20;65.00;;;;;;6218448;23;20004;-74
2021/03/27 00:37:26;;;;;;;9.00;3.83;;;12.30;65.10;;;;;;6245928;23;20012;-74
2021/03/27 00:40:05;;;;;;;5.80;2.97;;;12.30;65.30;;;;;;6245352;23;20004;-74
2021/03/27 00:42:37;;;;;;;5.18;3.00;;;12.40;65.50;;;;;;6218635;23;20325;-77
2021/03/27 00:45:10;;;;;;;4.43;2.55;;;12.50;65.40;;;;;;6218795;23;20015;-74
2021/03/27 00:47:41;;;;;;;6.20;3.30;;;12.40;65.50;;;;;;6243605;23;20439;-74
2021/03/27 00:50:13;;;;;;;4.57;2.80;;;12.50;65.40;;;;;;6219491;23;20008;-74
2021/03/27 00:52:46;;;;;;;7.35;2.50;;;12.60;65.50;;;;;;6245454;23;20065;-74
2021/03/27 00:55:17;;;;;;;4.50;2.45;;;12.60;65.10;;;;;;6219288;23;20104;-74
2021/03/27 00:57:56;;;;;;;3.95;2.35;;;12.70;65.00;;;;;;6218472;23;20494;-74
2021/03/27 01:00:26;;;;;;;6.15;2.40;;;12.70;64.90;;;;;;6219384;23;20331;-74
2021/03/27 01:03:03;;;;;;;3.50;2.45;;;12.80;64.60;;;;;;6218551;23;20867;-73
2021/03/27 01:05:31;;;;;;;4.35;2.38;;;12.80;64.40;;;;;;6245653;23;20027;-73
2021/03/27 01:07:59;;;;;;;6.28;1.98;;;12.80;64.50;;;;;;6218361;23;20000;-73
2021/03/27 01:10:38;;;;;;;4.03;2.08;;;12.90;64.40;;;;;;6245439;23;20071;-73
2021/03/27 01:13:10;;;;;;;5.47;1.90;;;12.90;64.30;;;;;;6246135;23;20087;-73
2021/03/27 01:15:41;;;;;;;4.15;2.10;;;12.90;64.20;;;;;;6237147;23;20027;-74
2021/03/27 01:18:30;;;;;;;2.08;1.77;;;13.00;64.50;;;;;;6244360;23;20074;-73
2021/03/27 01:20:59;;;;;;;2.10;1.52;;;13.00;64.60;;;;;;6245072;23;20000;-73
2021/03/27 01:23:26;;;;;;;4.25;1.83;;;13.00;64.80;;;;;;6245584;23;20000;-73
2021/03/27 01:26:03;;;;;;;2.83;1.80;;;13.00;65.00;;;;;;6236959;23;20000;-74
2021/03/27 01:28:38;;;;;;;5.60;1.70;;;13.00;65.30;;;;;;6221209;23;20081;-73
2021/03/27 01:31:17;;;;;;;2.88;1.50;;;13.00;65.50;;;;;;6244313;23;20004;-74
2021/03/27 01:33:43;;;;;;;2.58;1.50;;;13.00;65.70;;;;;;6235128;23;20026;-75
2021/03/27 01:36:08;;;;;;;3.08;1.85;;;13.00;66.00;;;;;;6245576;23;20004;-75
2021/03/27 01:38:48;;;;;;;4.60;1.58;;;12.90;66.10;;;;;;6244113;23;20086;-75
2021/03/27 01:41:26;;;;;;;1.48;1.17;;;12.90;66.50;;;;;;6245998;23;20007;-75
2021/03/27 01:44:06;;;;;;;3.72;1.40;;;12.90;66.70;;;;;;6243386;23;20014;-75
2021/03/27 01:46:44;;;;;;;1.60;1.45;;;12.80;66.90;;;;;;6243993;23;20015;-75
2021/03/27 01:49:33;;;;;;;2.25;1.40;;;12.80;67.00;;;;;;6243975;22;19996;-75
2021/03/27 01:52:25;;;;;;;2.25;1.60;;;12.80;67.30;;;;;;6245344;23;20003;-73
2021/03/27 01:54:55;;;;;;;2.65;1.52;;;12.80;67.40;;;;;;6244492;23;20000;-73
2021/03/27 01:57:33;;;;;;;3.53;2.05;;;12.80;67.50;;;;;;6244985;23;20354;-73
2021/03/27 02:00:04;;;;;;;2.88;1.58;;;12.80;67.80;;;;;;6243387;23;20331;-73
2021/03/27 02:02:44;;;;;;;2.80;1.63;;;12.70;67.80;;;;;;6244017;23;20009;-73
2021/03/27 02:05:36;;;;;;;2.75;1.67;;;12.80;68.20;;;;;;6243809;23;20055;-73
2021/03/27 02:08:18;;;;;;;4.65;1.50;;;12.70;68.60;;;;;;6243869;23;20435;-74
2021/03/27 02:10:58;;;;;;;3.25;1.50;;;12.70;68.90;;;;;;6243319;23;20050;-74
2021/03/27 02:13:48;;;;;;;2.83;1.67;;;12.60;69.70;;;;;;6269580;22;20067;-74
2021/03/27 02:16:35;;;;;;;2.83;1.48;;;12.60;70.60;;;;;;6188593;23;20013;-74
2021/03/27 02:19:04;;;;;;;3.17;1.55;;;12.50;71.00;;;;;;6187769;23;20428;-73
2021/03/27 02:21:58;;;;;;;3.92;1.73;;;12.50;71.00;;;;;;6188380;23;20001;-73
2021/03/27 02:24:34;;;;;;;3.10;1.98;;;12.50;71.00;;;;;;6188488;23;20007;-73
2021/03/27 02:27:13;;;;;;;3.35;1.92;;;12.50;71.10;;;;;;6187810;23;20336;-73
2021/03/27 02:29:57;;;;;;;3.85;1.95;;;12.50;71.10;;;;;;6187743;23;20005;-73
2021/03/27 02:32:47;;;;;;;4.60;1.92;;;12.40;73.10;;;;;;6188654;23;20083;-73
2021/03/27 02:35:13;;;;;;;3.88;2.05;;;12.40;75.40;;;;;;6188553;23;20004;-74
2021/03/27 02:38:14;;;;;;;4.32;2.17;;;12.30;77.40;;;;;;6212757;23;20009;-75
2021/03/27 02:40:53;;;;;;;4.72;2.22;;;12.20;79.40;;;;;;6188355;23;20012;-74
2021/03/27 02:43:36;;;;;;;4.13;1.92;;;11.90;81.10;;;;;;6190296;23;20005;-73
2021/03/27 02:46:27;;;;;;;3.67;2.30;;;11.70;82.30;;;;;;6189680;23;20096;-73
2021/03/27 02:49:31;;;;;;;4.72;2.20;;;11.50;81.40;;;;;;6215989;23;20427;-73
2021/03/27 02:52:16;;;;;;;3.20;2.10;;;11.40;81.70;;;;;;6189661;23;20304;-73
2021/03/27 02:54:51;;;;;;;2.75;1.77;;;11.40;81.20;;;;;;6215966;23;20023;-73
2021/03/27 02:57:43;;;;;;;4.45;1.70;;;11.40;79.90;;;;;;6215119;23;20016;-73
2021/03/27 03:00:18;;;;;;;3.30;1.90;;;11.40;80.30;;;;;;6177962;23;20363;-73
2021/03/27 03:02:59;;;;;;;3.50;1.98;;;11.30;80.40;;;;;;6216070;23;20087;-73
2021/03/27 03:05:43;;;;;;;3.40;1.75;;;11.30;79.80;;;;;;6190016;23;20040;-74
2021/03/27 03:08:34;;;;;;;4.80;1.75;;;11.30;79.20;;;;;;6190334;23;20009;-73
2021/03/27 03:11:24;;;;;;;3.03;1.27;;;11.20;78.90;;;;;;6189278;23;20313;-73
2021/03/27 03:14:06;;;;;;;1.10;1.00;;;11.10;77.10;;;;;;6191086;23;20001;-73
2021/03/27 03:16:57;;;;;;;2.53;0.90;;;11.10;74.80;;;;;;6245555;23;20091;-74
2021/03/27 03:19:30;;;;;;;1.77;0.63;;;11.00;73.60;;;;;;6247126;23;20000;-74
2021/03/27 03:22:06;;;;;;;1.02;0.60;;;10.90;72.60;;;;;;6246310;23;20072;-74
2021/03/27 03:24:34;;;;;;;0.82;0.50;;;10.80;73.20;;;;;;6245657;23;20139;-74
2021/03/27 03:27:06;;;;;;;0.85;0.65;;;10.70;72.50;;;;;;6244704;22;20004;-74
2021/03/27 03:29:35;;;;;;;1.25;0.65;;;10.70;73.40;;;;;;6247007;23;20004;-74
2021/03/27 03:32:30;;;;;;;0.80;0.30;;;10.70;73.00;;;;;;6246000;23;20000;-74
2021/03/27 03:34:58;;;;;;;2.63;0.40;;;10.60;70.50;;;;;;6233582;23;20090;-74
2021/03/27 03:37:47;;;;;;;0.28;0.20;;;10.40;69.70;;;;;;6244753;23;20087;-74
2021/03/27 03:40:24;;;;;;;0.65;0.30;;;10.30;69.40;;;;;;6245205;23;20003;-74
2021/03/27 03:43:07;;;;;;;0.30;0.10;;;10.20;69.60;;;;;;6244664;23;20043;-73
2021/03/27 03:45:43;;;;;;;0.25;0.10;;;10.20;69.60;;;;;;6244779;23;20051;-73
2021/03/27 03:48:43;;;;;;;0.50;0.20;;;10.00;68.30;;;;;;6245280;23;20107;-73
2021/03/27 03:51:27;;;;;;;0.82;0.22;;;10.00;68.00;;;;;;6244975;23;20004;-74
2021/03/27 03:54:10;;;;;;;1.48;0.20;;;9.90;67.60;;;;;;6244027;23;20027;-73
2021/03/27 03:56:59;;;;;;;0.10;0.10;;;9.90;66.90;;;;;;6246049;23;20313;-73
2021/03/27 03:59:43;;;;;;;0.13;0.13;;;9.80;67.10;;;;;;6244669;23;20035;-74
2021/03/27 04:02:17;;;;;;;0.20;0.10;;;9.70;65.70;;;;;;6246642;23;20008;-75
2021/03/27 04:04:48;;;;;;;0.85;0.20;;;9.60;66.20;;;;;;6244769;23;20004;-76
2021/03/27 04:07:28;;;;;;;0.30;0.17;;;9.50;66.60;;;;;;6246138;23;20004;-73
2021/03/27 04:09:59;;;;;;;0.88;0.17;;;9.40;67.30;;;;;;6270137;22;20083;-75
2021/03/27 04:12:31;;;;;;;1.55;0.20;;;9.30;67.90;;;;;;6270681;22;20000;-74
2021/03/27 04:15:02;;;;;;;;;;;9.20;68.30;;;;;;6244515;22;20027;-74
2021/03/27 04:17:47;;;;;;;1.10;0.25;;;9.10;69.00;;;;;;6245000;23;19922;-74
2021/03/27 04:20:26;;;;;;;0.30;0.10;;;9.10;68.70;;;;;;6246223;23;19996;-73
2021/03/27 04:23:30;;;;;;;0.20;0.10;;;9.10;68.30;;;;;;6244302;23;20004;-74
2021/03/27 04:26:26;;;;;;;0.40;0.20;;;8.90;68.90;;;;;;6231765;23;20042;-74
2021/03/27 04:28:58;;;;;;;0.85;0.13;;;8.90;69.60;;;;;;6243980;23;20084;-73
2021/03/27 04:31:34;;;;;;;0.10;0.10;;;8.90;68.90;;;;;;6246291;23;20000;-73
2021/03/27 04:34:03;;;;;;;0.43;0.20;;;8.90;69.40;;;;;;6269755;22;20031;-73
2021/03/27 04:36:53;;;;;;;0.35;0.10;;;8.90;69.40;;;;;;6244571;23;20018;-73
2021/03/27 04:39:29;;;;;;;1.40;0.40;;;8.90;70.40;;;;;;6246329;23;19992;-73
2021/03/27 04:42:11;;;;;;;0.40;0.30;;;8.90;72.30;;;;;;6243916;22;20083;-73
2021/03/27 04:44:47;;;;;;;0.57;0.30;;;8.90;73.00;;;;;;6270192;22;20067;-73
2021/03/27 04:47:16;;;;;;;0.50;0.22;;;8.80;73.00;;;;;;6244758;23;20142;-73
2021/03/27 04:49:50;;;;;;;1.25;0.30;;;8.80;71.80;;;;;;6270000;22;20026;-73
2021/03/27 04:52:41;;;;;;;0.47;0.38;;;8.60;71.90;;;;;;6244607;23;20427;-73
2021/03/27 04:55:28;;;;;;;0.60;0.40;;;8.40;72.60;;;;;;6243924;23;20100;-73
2021/03/27 04:58:35;;;;;;;0.40;0.30;;;8.40;72.80;;;;;;6245428;23;20435;-73
2021/03/27 05:01:18;;;;;;;0.30;0.30;;;8.40;72.60;;;;;;6127777;23;20092;-74
2021/03/27 05:04:24;;;;;;;0.30;0.20;;;8.30;70.70;;;;;;6241219;23;20008;-74
2021/03/27 05:07:03;;;;;;;1.13;0.30;;;8.30;71.00;;;;;;6245523;23;20004;-74
2021/03/27 05:09:53;;;;;;;1.23;0.40;;;8.30;71.60;;;;;;6244417;23;20000;-74
2021/03/27 05:12:45;;;;;;;0.50;0.33;;;8.30;71.70;;;;;;6244476;23;20000;-73
2021/03/27 05:15:11;;;;;;;0.22;0.20;;;8.20;71.90;;;;;;6172246;23;20024;-73
2021/03/27 05:17:45;;;;;;;0.67;0.40;;;8.20;72.40;;;;;;6245684;23;20010;-73
2021/03/27 05:20:29;;;;;;;0.63;0.40;;;8.10;72.80;;;;;;6218307;23;20091;-73
2021/03/27 05:22:55;;;;;;;0.57;0.30;;;8.10;73.20;;;;;;6245045;23;20107;-73
2021/03/27 05:25:43;;;;;;;0.30;0.20;;;7.90;71.70;;;;;;6245435;23;20000;-73
2021/03/27 05:28:26;;;;;;;2.10;0.63;;;7.90;71.70;;;;;;6243354;23;20035;-73
2021/03/27 05:31:19;;;;;;;2.53;0.80;;;7.80;71.60;;;;;;6243574;23;20087;-73
2021/03/27 05:34:05;;;;;;;1.23;0.30;;;7.90;72.80;;;;;;6245675;23;20006;-73
2021/03/27 05:37:24;;;;;;;0.50;0.30;;;7.80;73.20;;;;;;6219036;23;20019;-72
2021/03/27 05:40:36;;;;;;;0.77;0.20;;;7.80;73.50;;;;;;6145174;23;20001;-74
2021/03/27 05:43:20;;;;;;;0.57;0.30;;;7.90;73.20;;;;;;6217687;23;20435;-73
2021/03/27 05:46:20;;;;;;;1.27;0.40;;;7.90;72.70;;;;;;6244035;23;20015;-73
2021/03/27 05:48:51;;;;;;;0.67;0.33;;;7.90;72.60;;;;;;6245499;23;20028;-73
2021/03/27 05:51:35;;;;;;;2.00;0.28;;;7.90;73.50;;;;;;6243947;23;20434;-73
2021/03/27 05:54:13;;;;;;;2.97;0.40;;;8.00;73.20;;;;;;6242742;23;20036;-73
2021/03/27 05:57:16;;;;;;;2.00;0.40;;;8.00;73.70;;;;;;6218479;23;20035;-73
2021/03/27 05:59:54;;;;;;;1.33;0.30;;;7.90;73.30;;;;;;6234734;23;20010;-73
2021/03/27 06:02:49;;;;;;;5.40;0.60;;;7.90;73.10;;;;;;6218253;23;20008;-73
2021/03/27 06:05:34;;;;;;;1.00;0.37;;;7.90;72.90;;;;;;6216589;23;20012;-73
2021/03/27 06:08:15;;;;;;;2.17;0.50;;;8.00;72.40;;;;;;6244882;23;19996;-73
2021/03/27 06:11:26;;;;;;;2.30;0.50;;;8.00;72.00;;;;;;6244935;23;20020;-73
2021/03/27 06:14:10;;;;;;;1.37;0.40;;;7.90;72.00;;;;;;6097207;23;20060;-75
2021/03/27 06:17:14;;;;;;;0.70;0.50;;;8.00;71.40;;;;;;6216969;23;20020;-73
2021/03/27 06:20:17;;;;;;;2.30;0.60;;;8.00;71.50;;;;;;6243783;23;20031;-73
2021/03/27 06:23:25;;;;;;;5.30;0.80;;;8.00;71.40;;;;;;6243926;23;20004;-73
2021/03/27 06:26:19;;;;;;;2.00;0.53;;;8.10;70.60;;;;;;6218575;23;20008;-74
2021/03/27 06:29:04;;;;;;;1.70;0.40;;;8.00;70.60;;;;;;6245048;23;20127;-74
2021/03/27 06:32:02;;;;;;;1.27;0.50;;;8.10;71.00;;;;;;6243947;23;20000;-74
2021/03/27 06:34:43;;;;;;;0.60;0.20;;;8.10;69.80;;;;;;6243982;22;20005;-75
2021/03/27 06:37:30;;;;;;;3.03;0.60;;;8.10;69.70;;;;;;6244578;23;20048;-74
2021/03/27 06:39:59;;;;;;;0.77;0.50;;;8.00;70.30;;;;;;6244279;23;19996;-74
2021/03/27 06:42:49;;;;;;;2.90;0.47;;;8.10;69.60;;;;;;6218545;23;20304;-75
2021/03/27 06:45:33;;;;;;;0.90;0.50;;;8.10;69.50;;;;;;6241551;23;20012;-75
2021/03/27 06:48:38;;;;;;;1.77;0.20;;;8.10;69.60;;;;;;6244305;23;20004;-75
2021/03/27 06:51:41;;;;;;;2.70;0.50;;;8.20;69.00;;;;;;6167584;23;20511;-75
2021/03/27 06:54:44;;;;;;;1.53;0.47;;;8.30;69.40;;;;;;6243034;23;19996;-74
2021/03/27 06:57:23;;;;;;;2.00;0.53;;;8.20;69.30;;;;;;6242800;23;20012;-74
2021/03/27 07:00:00;;;;;;;2.30;0.40;;;8.20;68.90;;;;;;6218316;23;20420;-75
2021/03/27 07:02:52;;;;;;;1.30;0.50;;;8.20;68.90;;;;;;6245048;23;19996;-74
2021/03/27 07:05:58;;;;;;;2.60;0.60;;;8.30;69.00;;;;;;6243884;23;20038;-74
2021/03/27 07:08:33;;;;;;;2.60;0.80;;;8.30;68.60;;;;;;6243458;23;20407;-74
2021/03/27 07:11:26;;;;;;;0.90;0.67;;;8.30;68.80;;;;;;6212713;23;20001;-75
2021/03/27 07:14:29;;;;;;;2.93;1.10;;;8.40;69.00;;;;;;6217948;23;20419;-74
2021/03/27 07:17:23;;;;;;;4.23;1.03;;;8.50;69.10;;;;;;6242950;23;20106;-78
2021/03/27 07:20:02;;;;;;;1.60;0.73;;;8.50;68.90;;;;;;6245102;23;20011;-74
2021/03/27 07:22:42;;;;;;;2.90;0.70;;;8.50;68.70;;;;;;6218070;23;20007;-75
2021/03/27 07:25:23;;;;;;;3.10;0.90;;;8.50;68.80;;;;;;6244412;23;19996;-74
2021/03/27 07:28:18;;;;;;;1.23;0.68;;;8.50;69.00;;;;;;6244790;23;20004;-74
2021/03/27 07:31:14;;;;;;;1.93;0.67;;;8.50;69.00;;;;;;6197046;23;20011;-74
2021/03/27 07:33:49;;;;;;;2.60;0.87;;;8.60;68.60;;;;;;6244926;23;20024;-74
2021/03/27 07:36:33;;;;;;;2.50;0.40;;;8.50;67.60;;;;;;6246154;23;20455;-74
2021/03/27 07:39:23;;;;;;;2.80;0.47;;;8.60;67.70;;;;;;6246108;23;20007;-74
2021/03/27 07:41:51;;;;;;;2.93;0.70;;;8.60;66.80;;;;;;6245048;23;20000;-74
2021/03/27 07:44:23;;;;;;;2.85;0.52;;;8.70;67.00;;;;;;6218690;23;20039;-74
2021/03/27 07:47:23;;;;;;;2.83;0.63;;;8.60;66.40;;;;;;6219320;23;20008;-74
2021/03/27 07:50:47;;;;;;;3.00;0.67;;;8.50;66.70;;;;;;6245126;23;20427;-74
2021/03/27 07:53:33;;;;;;;3.40;0.50;;;8.50;66.00;;;;;;6073627;23;20002;-74
2021/03/27 07:56:23;;;;;;;3.07;0.60;;;8.40;66.00;;;;;;6069926;23;20050;-75
2021/03/27 07:59:28;;;;;;;3.30;0.50;;;8.40;62.90;;;;;;6210874;23;20027;-73
2021/03/27 08:02:08;;;;;;;1.50;0.50;;;8.30;62.50;;;;;;6218348;23;20427;-74
2021/03/27 08:04:49;;;;;;;4.73;0.70;;;8.30;62.60;;;;;;6219980;23;20000;-74
2021/03/27 08:07:23;;;;;;;3.27;0.50;;;8.30;62.20;;;;;;6244227;23;20008;-74
2021/03/27 08:10:07;;;;;;;2.80;0.73;;;8.30;61.10;;;;;;6239471;23;20001;-74
2021/03/27 08:12:54;;;;;;;2.83;0.60;;;8.30;60.70;;;;;;6235683;23;19996;-73
2021/03/27 08:15:42;;;;;;;2.23;0.50;;;8.30;60.30;;;;;;6245513;23;20020;-74
2021/03/27 08:18:52;;;;;;;1.80;0.50;;;8.40;60.30;;;;;;6243866;23;20020;-75
2021/03/27 08:21:47;;;;;;;2.93;0.60;;;8.50;58.10;;;;;;6243891;23;20004;-74
2021/03/27 08:24:51;;;;;;;3.78;0.57;;;8.60;58.20;;;;;;6223384;23;20008;-74
2021/03/27 08:27:52;;;;;;;4.90;0.60;;;8.60;56.50;;;;;;6243488;22;20004;-74
2021/03/27 08:30:55;;;;;;;3.03;0.60;;;8.70;56.60;;;;;;6269274;22;19996;-75
2021/03/27 08:33:24;;;;;;;3.53;0.60;;;8.60;56.80;;;;;;6244939;23;20052;-75
2021/03/27 08:36:12;;;;;;;3.57;0.70;;;8.60;57.80;;;;;;6243997;22;20004;-75
2021/03/27 08:39:16;;;;;;;2.57;0.67;;;8.80;57.30;;;;;;6244061;23;20446;-75
2021/03/27 08:42:18;;;;;;;9.47;1.70;;;8.80;57.20;;;;;;6244188;22;20158;-74
2021/03/27 08:45:05;;;;;;;2.72;0.43;;;8.80;56.90;;;;;;6197080;23;20012;-75
2021/03/27 08:47:59;;;;;;;2.83;0.57;;;8.90;56.30;;;;;;6269582;22;20023;-75
2021/03/27 08:50:53;;;;;;;2.05;0.40;;;9.00;55.70;;;;;;6269851;22;20004;-74
2021/03/27 08:53:30;;;;;;;2.33;0.50;;;9.00;55.50;;;;;;6245333;23;20008;-74
2021/03/27 08:56:50;;;;;;;2.90;0.47;;;8.90;54.70;;;;;;6269685;22;20008;-75
2021/03/27 08:59:22;;;;;;;2.63;0.63;;;8.80;55.30;;;;;;6151884;23;20085;-74
2021/03/27 09:02:27;;;;;;;3.97;0.90;;;8.90;56.80;;;;;;6228915;23;20419;-74
2021/03/27 09:05:11;;;;;;;3.35;0.70;;;9.00;56.70;;;;;;6164754;22;20009;-76
2021/03/27 09:08:08;;;;;;;1.20;0.22;;;9.00;55.70;;;;;;6245523;23;20011;-75
2021/03/27 09:10:53;;;;;;;1.98;0.63;;;9.10;55.20;;;;;;6242547;23;20004;-77
2021/03/27 09:13:48;;;;;;;3.05;0.68;;;9.30;55.10;;;;;;6239660;23;20000;-74
2021/03/27 09:16:42;;;;;;;1.80;0.63;;;9.30;54.40;;;;;;6242404;23;20024;-74
2021/03/27 09:19:19;;;;;;;1.85;0.40;;;9.40;54.70;;;;;;6244502;23;20008;-74
2021/03/27 09:22:20;;;;;;;3.08;0.70;;;9.30;55.00;;;;;;6245237;23;20000;-75
2021/03/27 09:25:13;;;;;;;3.75;0.50;;;9.50;54.30;;;;;;6245433;23;20119;-76
2021/03/27 09:28:17;;;;;;;4.13;0.45;;;9.60;52.60;;;;;;6244415;23;20035;-76
2021/03/27 09:31:24;;;;;;;1.90;0.77;;;9.70;51.40;;;;;;6137174;23;20006;-76
2021/03/27 09:34:22;;;;;;;3.85;0.52;;;9.70;52.60;;;;;;6224461;23;20034;-79
2021/03/27 09:37:22;;;;;;;3.40;0.90;;;9.80;53.40;;;;;;6268215;22;20059;-77
2021/03/27 09:39:58;;;;;;;1.45;0.20;;;9.80;51.80;;;;;;6197052;23;20015;-75
2021/03/27 09:42:46;;;;;;;1.75;0.20;;;9.60;53.00;;;;;;6242074;23;20000;-77
2021/03/27 09:45:18;;;;;;;2.70;0.45;;;9.70;52.50;;;;;;6268205;22;20427;-75
2021/03/27 09:48:27;;;;;;;1.02;0.30;;;9.80;53.00;;;;;;6244355;23;20058;-75
2021/03/27 09:51:09;;;;;;;3.20;0.65;;;9.90;52.70;;;;;;6126539;23;20010;-75
2021/03/27 09:53:40;;;;;;;3.22;0.45;;;10.00;52.80;;;;;;6237739;23;20004;-75
2021/03/27 09:56:16;;;;;;;3.58;0.60;;;9.90;51.70;;;;;;6243718;23;20001;-75
2021/03/27 09:59:29;;;;;;;8.55;0.73;;;9.90;50.60;;;;;;6243109;23;20004;-75
2021/03/27 10:02:12;;;;;;;1.35;0.45;;;10.00;49.90;;;;;;6125463;23;20010;-76
2021/03/27 10:04:50;;;;;;;4.30;0.47;;;10.00;50.60;;;;;;6241370;23;20008;-74
2021/03/27 10:07:44;;;;;;;3.08;0.68;;;10.20;50.00;;;;;;6267884;22;20058;-73
2021/03/27 10:10:47;;;;;;;2.97;0.43;;;10.20;48.70;;;;;;6196082;23;20008;-74
2021/03/27 10:13:38;;;;;;;1.75;0.50;;;10.10;48.30;;;;;;6242691;23;20007;-74
2021/03/27 10:16:08;;;;;;;1.27;0.57;;;10.10;48.90;;;;;;6267497;22;20016;-74
2021/03/27 10:18:39;;;;;;;3.13;0.80;;;10.00;50.30;;;;;;6244661;23;20528;-74
2021/03/27 10:21:37;;;;;;;5.07;0.60;;;9.90;49.90;;;;;;6242108;23;20004;-74
2021/03/27 10:24:09;;;;;;;4.80;0.65;;;10.10;50.30;;;;;;6268189;22;20016;-76
2021/03/27 10:26:55;;;;;;;2.80;0.65;;;10.20;50.20;;;;;;6244336;23;20004;-74
2021/03/27 10:29:42;;;;;;;3.35;0.50;;;10.20;49.80;;;;;;6242479;23;20063;-74
2021/03/27 10:32:30;;;;;;;2.40;0.52;;;10.20;50.00;;;;;;6243837;23;20059;-74
2021/03/27 10:35:08;;;;;;;1.80;0.50;;;10.40;49.50;;;;;;6242806;22;20062;-74
2021/03/27 10:37:56;;;;;;;2.50;0.45;;;10.50;47.50;;;;;;6243054;23;20055;-73
2021/03/27 10:40:36;;;;;;;1.95;0.57;;;10.60;48.00;;;;;;6244019;23;20055;-73
2021/03/27 10:43:21;;;;;;;3.38;0.50;;;10.80;48.10;;;;;;6242478;23;20074;-73
2021/03/27 10:45:53;;;;;;;1.98;0.50;;;10.70;47.00;;;;;;6242352;22;20004;-74
2021/03/27 10:48:45;;;;;;;6.63;0.80;;;10.70;46.40;;;;;;6243098;23;20000;-74
2021/03/27 10:51:38;;;;;;;3.53;0.40;;;10.60;47.50;;;;;;6241773;23;20000;-74
2021/03/27 10:54:50;;;;;;;4.13;0.57;;;10.60;46.50;;;;;;6241932;23;20379;-77
2021/03/27 10:57:41;;;;;;;1.30;0.30;;;10.50;46.90;;;;;;6241576;23;20004;-75
2021/03/27 11:00:22;;;;;;;4.88;0.57;;;10.60;47.40;;;;;;6241801;22;20018;-75
2021/03/27 11:03:16;;;;;;;3.60;0.50;;;10.60;46.50;;;;;;6243424;23;19996;-73
2021/03/27 11:05:54;;;;;;;2.47;0.70;;;10.60;47.40;;;;;;6244814;23;20046;-73
2021/03/27 11:08:37;;;;;;;2.20;0.60;;;10.70;46.90;;;;;;6245622;23;20004;-73
2021/03/27 11:11:15;;;;;;;2.28;0.50;;;10.70;45.00;;;;;;6244655;23;20000;-73
2021/03/27 11:13:41;;;;;;;2.35;0.50;;;10.70;46.80;;;;;;6246319;23;20059;-75
2021/03/27 11:16:47;;;;;;;2.20;0.32;;;10.90;46.40;;;;;;6245449;23;20020;-75
2021/03/27 11:19:35;;;;;;;1.02;0.45;;;11.10;44.80;;;;;;6245364;23;20122;-75
2021/03/27 11:22:30;;;;;;;3.72;0.25;;;11.20;45.50;;;;;;6244066;23;20012;-74
2021/03/27 11:25:21;;;;;;;1.38;0.38;;;11.20;43.20;;;;;;6244567;23;20000;-73
2021/03/27 11:28:00;;;;;;;4.82;0.63;;;11.10;44.60;;;;;;6246046;23;20004;-74
2021/03/27 11:30:50;;;;;;;3.00;0.45;;;11.20;44.90;;;;;;6244048;23;20012;-75
2021/03/27 11:33:32;;;;;;;3.00;0.40;;;11.30;44.50;;;;;;6186464;23;20454;-73
2021/03/27 11:36:24;;;;;;;3.25;0.47;;;11.30;44.40;;;;;;6244006;23;20108;-74
2021/03/27 11:38:55;;;;;;;1.67;0.50;;;11.30;44.30;;;;;;6246490;23;20027;-75
2021/03/27 11:41:46;;;;;;;2.27;0.40;;;11.40;45.10;;;;;;6245218;23;20002;-75
2021/03/27 11:44:54;;;;;;;5.97;0.70;;;11.20;44.10;;;;;;6245460;23;20007;-74
2021/03/27 11:47:38;;;;;;;2.47;0.45;;;11.10;44.40;;;;;;6269533;22;20008;-75
2021/03/27 11:50:15;;;;;;;2.78;0.40;;;11.20;44.50;;;;;;6244647;23;20004;-76
2021/03/27 11:52:47;;;;;;;2.47;0.60;;;11.20;44.20;;;;;;6244965;23;20008;-76
2021/03/27 11:55:28;;;;;;;1.48;0.38;;;11.40;44.70;;;;;;6243502;22;20082;-77
2021/03/27 11:57:54;;;;;;;4.70;0.75;;;11.50;44.50;;;;;;6245796;23;20000;-73
2021/03/27 12:03:19;;;;;;;3.25;0.55;;;11.80;44.10;;;;;;6245478;23;20390;-74
2021/03/27 12:06:20;;;;;;;1.63;0.50;;;11.80;43.40;;;;;;6244085;23;20004;-74
2021/03/27 12:09:24;;;;;;;1.80;0.47;;;11.80;43.80;;;;;;6152430;23;20165;-73
2021/03/27 12:11:53;;;;;;;2.40;0.60;;;11.90;44.00;;;;;;6245169;23;20024;-74
2021/03/27 12:14:39;;;;;;;2.67;0.60;;;12.00;44.80;;;;;;6217548;23;20066;-74
2021/03/27 12:17:43;;;;;;;2.78;0.60;;;12.00;44.00;;;;;;6244156;23;20111;-73
2021/03/27 12:20:11;;;;;;;4.78;1.25;;;12.00;44.10;;;;;;6243325;23;20014;-74
2021/03/27 12:22:43;;;;;;;2.42;0.50;;;12.00;44.70;;;;;;6245170;23;20000;-73
2021/03/27 12:25:18;;;;;;;;;;;12.00;45.40;;;;;;6245452;23;20083;-74
2021/03/27 12:27:54;;;;;;;3.45;0.32;;;12.00;44.30;;;;;;6244068;23;19900;-74
2021/03/27 12:30:32;;;;;;;1.75;0.40;;;11.90;44.80;;;;;;6245341;23;20004;-73
2021/03/27 12:33:24;;;;;;;1.48;0.50;;;11.70;45.40;;;;;;6243977;23;20004;-74
2021/03/27 12:36:07;;;;;;;4.20;0.90;;;11.60;45.50;;;;;;6202250;23;20046;-73
2021/03/27 12:39:09;;;;;;;2.92;0.60;;;11.60;46.10;;;;;;6243984;23;20324;-73
2021/03/27 12:42:06;;;;;;;1.52;0.38;;;11.70;45.60;;;;;;6243982;23;20004;-73
2021/03/27 12:44:51;;;;;;;3.78;0.68;;;11.80;45.20;;;;;;6233500;23;20012;-73
2021/03/27 12:47:39;;;;;;;3.85;1.30;;;11.80;46.00;;;;;;6243151;23;20012;-74
2021/03/27 12:50:23;;;;;;;5.90;1.00;;;11.70;46.00;;;;;;6243738;23;20269;-73
2021/03/27 12:53:13;;;;;;;4.80;0.65;;;11.60;46.10;;;;;;6245171;23;20071;-74
2021/03/27 12:55:42;;;;;;;3.75;1.02;;;11.50;46.10;;;;;;6245347;23;20001;-74
2021/03/27 12:58:45;;;;;;;2.92;0.68;;;11.30;46.30;;;;;;6242706;23;20423;-75
2021/03/27 13:01:37;;;;;;;4.97;1.08;;;11.20;47.30;;;;;;6268591;22;20078;-74
2021/03/27 13:04:21;;;;;;;;;;;11.80;47.00;;;;;;6243604;23;20051;-73
2021/03/27 13:07:15;;;;;;;3.03;0.60;;;12.30;45.00;;;;;;6243444;23;19903;-75
2021/03/27 13:10:05;;;;;;;4.55;1.05;;;12.80;44.00;;;;;;6244299;23;20008;-76
2021/03/27 13:13:03;;;;;;;6.15;0.63;;;13.30;43.80;;;;;;6242771;23;20013;-77
2021/03/27 13:15:52;;;;;;;3.33;0.63;;;12.90;43.60;;;;;;6242178;23;20020;-77
2021/03/27 13:18:31;;;;;;;3.67;0.50;;;12.40;43.40;;;;;;6243876;23;20062;-73
2021/03/27 13:21:12;;;;;;;3.95;0.57;;;12.10;44.50;;;;;;6243370;23;20015;-73
2021/03/27 13:24:15;;;;;;;3.85;0.52;;;11.90;44.90;;;;;;6243411;23;20355;-73
2021/03/27 13:26:43;;;;;;;3.70;0.80;;;11.70;46.10;;;;;;6245191;23;20004;-73
2021/03/27 13:29:41;;;;;;;4.40;0.70;;;11.80;46.70;;;;;;6242636;23;20000;-74
2021/03/27 13:32:13;;;;;;;5.70;0.60;;;11.80;46.90;;;;;;6243241;23;20057;-74
2021/03/27 13:35:00;;;;;;;5.22;0.80;;;11.70;47.10;;;;;;6244934;23;20000;-86
2021/03/27 13:37:38;;;;;;;3.47;0.65;;;12.40;45.40;;;;;;6244927;23;20419;-79
2021/03/27 13:40:14;;;;;;;4.78;0.90;;;13.60;43.80;;;;;;6243635;23;20004;-73
2021/03/27 13:43:21;;;;;;;4.47;0.80;;;14.30;42.30;;;;;;6241039;23;20004;-73
2021/03/27 13:46:02;;;;;;;2.72;0.70;;;14.40;39.00;;;;;;6236961;23;20102;-74
2021/03/27 13:48:27;;;;;;;3.78;0.80;;;14.30;40.20;;;;;;6243882;23;20347;-73
2021/03/27 13:51:26;;;;;;;4.30;1.25;;;15.40;39.30;;;;;;6243256;22;20005;-74
2021/03/27 13:54:13;;;;;;;2.42;0.70;;;16.10;36.90;;;;;;6268817;22;20011;-73
2021/03/27 13:56:57;;;;;;;4.63;1.08;;;16.90;36.50;;;;;;6243029;23;20061;-74
2021/03/27 13:59:44;;;;;;;2.25;0.60;;;17.10;34.70;;;;;;6242580;23;20004;-73
2021/03/27 14:02:21;;;;;;;3.22;0.90;;;17.10;33.60;;;;;;6267800;22;20051;-74
2021/03/27 14:05:00;;;;;;;2.40;0.60;;;17.00;33.20;;;;;;6242617;23;19996;-74
2021/03/27 14:07:46;;;;;;;4.07;0.60;;;17.00;33.60;;;;;;6244271;22;20032;-73
2021/03/27 14:10:18;;;;;;;4.68;0.80;;;16.90;34.20;;;;;;6242449;23;20023;-74
2021/03/27 14:12:54;;;;;;;;;;;16.50;35.20;;;;;;6243080;23;20008;-73
2021/03/27 14:15:52;;;;;;;6.80;0.60;;;15.70;36.40;;;;;;6241490;23;19915;-72
2021/03/27 14:18:30;;;;;;;5.03;0.73;;;16.20;35.70;;;;;;6180550;23;20461;-74
2021/03/27 14:21:23;;;;;;;2.53;0.57;;;16.30;35.00;;;;;;6243003;23;20338;-74
2021/03/27 14:24:27;;;;;;;3.45;0.60;;;16.60;34.50;;;;;;6243689;23;20000;-75
2021/03/27 14:27:13;;;;;;;3.05;0.70;;;16.40;33.90;;;;;;6242179;23;20014;-74